M I D A S
Marine Information and Data Acquisition System
Tripno 2293 of the Zeeleeuw from 2012-04-19 13:09:01 to 2012-04-19 13:09:03
Back to CruiseResearch ActivitiesStationsMapUnderway DataData graphs

EquipmentUnitsComment
TimeDGPSUTC
LatitudeDGPSDM.mWGS84
LongitudeDGPSDM.mWGS84
HeadingGyrodeg 
SOGDGPSknotsSpeed over ground
COGDGPSdegCourse over ground
DepthEcho soundermeters200 kHz
Missing or incorrect values are displayed as -999
Navigation data collected by the RV Zeeleeuw from 2012-04-19 08:09:03 to 2012-04-19 13:27:47
Time Latitude Longitude Heading SOG COG Depth
2012-04-19 08:10:08 51°26.098 2°48.606 304.8 4.2 295 25
2012-04-19 08:11:08 51°26.108 2°48.557 305.9 0.5 260 24.1
2012-04-19 08:12:08 51°26.109 2°48.552 304.7 0.2 322 24
2012-04-19 08:13:08 51°26.109 2°48.549 310 0.1 240 24.3
2012-04-19 08:14:08 51°26.109 2°48.546 308.4 0.1 352 24.9
2012-04-19 08:15:08 51°26.11 2°48.545 305.4 0.2 351 24.3
2012-04-19 08:16:08 51°26.112 2°48.543 300.4 0.2 281 24.2
2012-04-19 08:17:08 51°26.113 2°48.541 298.6 0.1 296 23.9
2012-04-19 08:18:08 51°26.115 2°48.538 297.6 0.3 357 24.2
2012-04-19 08:19:08 51°26.117 2°48.535 296.9 0.2 333 24
2012-04-19 08:20:08 51°26.12 2°48.533 296.4 0.2 350 23.9
2012-04-19 08:21:08 51°26.122 2°48.532 299.7 0.2 322 23.5
2012-04-19 08:22:08 51°26.125 2°48.53 297.8 0.3 349 23.6
2012-04-19 08:23:08 51°26.129 2°48.526 296.2 0.4 341 23.1
2012-04-19 08:24:07 51°26.131 2°48.524 296.1 0.3 351 24
2012-04-19 08:25:07 51°26.134 2°48.524 300.2 -999 128 23.4
2012-04-19 08:26:08 51°26.135 2°48.525 302.5 0.1 44 23.2
2012-04-19 08:27:08 51°26.137 2°48.527 304.3 0.1 38 24.1
2012-04-19 08:28:08 51°26.139 2°48.528 301.3 0.1 353 23.8
2012-04-19 08:29:08 51°26.142 2°48.529 296.4 0.3 2 24.2
2012-04-19 08:30:08 51°26.147 2°48.531 295.7 0.2 38 24
2012-04-19 08:31:08 51°26.151 2°48.536 299.1 0.3 37 23.6
2012-04-19 08:32:08 51°26.153 2°48.54 300.8 0.2 53 23.8
2012-04-19 08:33:07 51°26.156 2°48.544 301.2 0.4 35 23.6
2012-04-19 08:34:08 51°26.158 2°48.547 300 0.2 44 22.7
2012-04-19 08:35:08 51°26.161 2°48.552 302.6 0.4 45 23.1
2012-04-19 08:36:08 51°26.164 2°48.556 302.7 0.1 33 22
2012-04-19 08:37:08 51°26.166 2°48.558 301 0.1 48 22.1
2012-04-19 08:38:08 51°26.169 2°48.562 296.7 0.2 76 22.8
2012-04-19 08:39:08 51°26.172 2°48.567 298.6 0.4 37 24.6
2012-04-19 08:40:07 51°26.176 2°48.573 298 0.3 52 24
2012-04-19 08:41:08 51°26.179 2°48.579 298.5 0.4 44 23.6
2012-04-19 08:42:08 51°26.182 2°48.588 303.9 0.3 69 23.6
2012-04-19 08:43:08 51°26.184 2°48.596 305.1 0.3 60 23.1
2012-04-19 08:44:08 51°26.187 2°48.6 302.3 0.2 50 23.3
2012-04-19 08:45:08 51°26.19 2°48.603 297.5 0.2 19 23.7
2012-04-19 08:46:08 51°26.195 2°48.606 295.8 0.1 11 24.5
2012-04-19 08:47:08 51°26.2 2°48.609 290.9 0.4 14 24.6
2012-04-19 08:48:08 51°26.207 2°48.615 291.4 0.4 39 24.9
2012-04-19 08:49:07 51°26.213 2°48.621 294.2 0.5 33 25.3
2012-04-19 08:50:08 51°26.218 2°48.63 302.4 0.5 43 23.8
2012-04-19 08:51:07 51°26.222 2°48.638 300.7 0.4 28 23.3
2012-04-19 08:52:08 51°26.226 2°48.647 304.4 0.5 35 21.2
2012-04-19 08:53:08 51°26.23 2°48.656 301.7 0.4 44 21.7
2012-04-19 08:54:08 51°26.235 2°48.665 297.5 0.5 34 23.2
2012-04-19 08:55:08 51°26.24 2°48.673 295.7 0.6 32 24.2
2012-04-19 08:56:08 51°26.246 2°48.682 295.5 0.5 48 25.2
2012-04-19 08:57:08 51°26.252 2°48.693 294.9 0.5 50 25.4
2012-04-19 08:58:07 51°26.257 2°48.704 297.9 0.6 61 25.2
2012-04-19 08:59:08 51°26.264 2°48.717 299.6 0.5 58 23.8
2012-04-19 09:00:08 51°26.271 2°48.729 301.4 0.6 46 22.7
2012-04-19 09:01:08 51°26.276 2°48.744 301.3 0.7 56 21.7
2012-04-19 09:02:08 51°26.282 2°48.757 301.1 0.7 46 24.5
2012-04-19 09:03:08 51°26.288 2°48.768 297.8 0.5 51 24.9
2012-04-19 09:04:08 51°26.295 2°48.781 299.4 0.7 39 24.5
2012-04-19 09:05:08 51°26.301 2°48.795 299.6 0.7 64 24.7
2012-04-19 09:06:08 51°26.307 2°48.812 302.6 0.7 59 23.1
2012-04-19 09:07:08 51°26.313 2°48.83 304.4 0.8 64 21.9
2012-04-19 09:08:08 51°26.318 2°48.85 309.9 0.8 71 24.6
2012-04-19 09:09:07 51°26.324 2°48.868 315.9 0.6 66 25.1
2012-04-19 09:10:08 51°26.331 2°48.885 309.1 0.9 54 25.3
2012-04-19 09:11:08 51°26.34 2°48.9 299.1 0.7 58 23.1
2012-04-19 09:12:08 51°26.348 2°48.918 298.9 0.7 67 20.6
2012-04-19 09:13:08 51°26.355 2°48.94 303 0.9 60 21.5
2012-04-19 09:14:08 51°26.363 2°48.96 306.7 0.8 59 24.5
2012-04-19 09:15:08 51°26.371 2°48.981 306.8 1.1 51 24.9
2012-04-19 09:16:08 51°26.38 2°48.999 301.4 0.9 50 25
2012-04-19 09:17:08 51°26.389 2°49.015 296 0.7 56 24
2012-04-19 09:18:08 51°26.398 2°49.033 295.5 0.9 54 22.2
2012-04-19 09:19:07 51°26.41 2°49.043 288.9 1 347 22.1
2012-04-19 09:20:08 51°26.419 2°49.021 261.9 1.2 273 22.5
2012-04-19 09:21:08 51°26.414 2°48.984 239 1.9 250 22.9
2012-04-19 09:22:08 51°26.397 2°48.915 245.4 3 253 23.7
2012-04-19 09:23:08 51°26.377 2°48.831 242.9 3.6 245 20.6
2012-04-19 09:24:08 51°26.35 2°48.746 241.4 3.5 242 23.4
2012-04-19 09:25:08 51°26.311 2°48.636 236.9 6.3 237 21.9
2012-04-19 09:26:08 51°26.229 2°48.434 237.7 10.4 237 24.6
2012-04-19 09:27:07 51°26.135 2°48.179 242.3 11.5 242 22
2012-04-19 09:28:08 51°26.043 2°47.902 242.9 11.5 243 24.9
2012-04-19 09:29:08 51°25.939 2°47.647 234.7 11.5 233 24.7
2012-04-19 09:30:08 51°25.824 2°47.401 234.6 11.4 234 25.7
2012-04-19 09:31:08 51°25.72 2°47.144 240.6 11.3 240 24.2
2012-04-19 09:32:07 51°25.624 2°46.891 237.8 11.2 237 25.4
2012-04-19 09:33:08 51°25.514 2°46.647 235 11.1 235 26.6
2012-04-19 09:34:07 51°25.416 2°46.4 239.5 11.2 239 27.7
2012-04-19 09:35:08 51°25.313 2°46.147 235.6 11 234 27.9
2012-04-19 09:36:08 51°25.201 2°45.911 234.4 11.3 232 26.2
2012-04-19 09:37:08 51°25.101 2°45.661 239.5 11.1 239 25.7
2012-04-19 09:38:08 51°25.002 2°45.412 236.2 11 234 28.5
2012-04-19 09:39:08 51°24.893 2°45.175 235.6 11.1 234 26.4
2012-04-19 09:40:08 51°24.789 2°44.931 240.2 11.1 240 28.8
2012-04-19 09:41:08 51°24.693 2°44.68 238.1 11.1 236 28.8
2012-04-19 09:42:08 51°24.587 2°44.44 235.7 10.9 233 29.3
2012-04-19 09:43:08 51°24.48 2°44.203 237.3 11 235 24
2012-04-19 09:44:08 51°24.381 2°43.958 239.5 11 237 26.5
2012-04-19 09:45:08 51°24.278 2°43.717 235.4 11 232 25.4
2012-04-19 09:46:08 51°24.17 2°43.485 235.6 10.9 235 24.3
2012-04-19 09:47:08 51°24.071 2°43.244 238.4 10.8 237 23.3
2012-04-19 09:48:08 51°23.973 2°43.004 238.2 10.8 236 28.7
2012-04-19 09:49:08 51°23.869 2°42.77 235.2 10.7 233 30.2
2012-04-19 09:50:08 51°23.765 2°42.534 237 10.8 236 28.6
2012-04-19 09:51:08 51°23.663 2°42.298 238.2 10.8 237 28.8
2012-04-19 09:52:08 51°23.568 2°42.057 239.7 10.7 239 29.2
2012-04-19 09:53:08 51°23.465 2°41.828 235.4 10.5 233 30
2012-04-19 09:54:08 51°23.361 2°41.597 238.2 10.7 236 31.4
2012-04-19 09:55:08 51°23.255 2°41.369 232.4 10.6 231 29.8
2012-04-19 09:56:08 51°23.136 2°41.161 230.4 10.8 229 31.5
2012-04-19 09:57:07 51°23.024 2°40.945 233.3 10.8 232 31.6
2012-04-19 09:58:08 51°22.909 2°40.721 232.7 10.7 232 31.9
2012-04-19 09:59:07 51°22.799 2°40.504 231.4 10.7 228 32
2012-04-19 10:00:08 51°22.669 2°40.308 222.8 10.5 219 32.9
2012-04-19 10:01:07 51°22.53 2°40.145 218.9 10.7 215 32.7
2012-04-19 10:02:08 51°22.385 2°39.977 219.4 10.6 217 32.7
2012-04-19 10:03:08 51°22.237 2°39.82 216.1 10.6 211 31.8
2012-04-19 10:04:08 51°22.078 2°39.691 207.6 10.8 199 31.8
2012-04-19 10:05:08 51°21.898 2°39.649 186.8 11 180 30.8
2012-04-19 10:06:08 51°21.714 2°39.643 189.9 11.3 183 29.9
2012-04-19 10:07:08 51°21.53 2°39.62 192.1 10.9 186 29.4
2012-04-19 10:08:08 51°21.349 2°39.575 195.9 11 191 29.5
2012-04-19 10:09:08 51°21.168 2°39.542 191.5 11.1 185 29.1
2012-04-19 10:10:07 51°20.989 2°39.51 194.4 10.9 187 28.5
2012-04-19 10:11:08 51°20.804 2°39.471 193.6 10.9 188 27.7
2012-04-19 10:12:08 51°20.622 2°39.429 194.8 11 189 28.2
2012-04-19 10:13:08 51°20.439 2°39.402 191.1 11 184 27.9
2012-04-19 10:14:08 51°20.259 2°39.36 194.4 11 189 28.6
2012-04-19 10:15:07 51°20.081 2°39.331 192.3 11 187 29.8
2012-04-19 10:16:08 51°19.901 2°39.279 195.8 10.7 191 30
2012-04-19 10:17:08 51°19.722 2°39.24 190.6 10.8 185 30.9
2012-04-19 10:18:08 51°19.545 2°39.203 193.9 10.7 189 32.1
2012-04-19 10:19:07 51°19.371 2°39.156 193.4 10.8 188 32.4
2012-04-19 10:20:08 51°19.19 2°39.118 191.4 10.8 186 31.6
2012-04-19 10:21:08 51°19.011 2°39.08 193.6 10.9 190 30.7
2012-04-19 10:22:08 51°18.834 2°39.042 185.1 10.9 176 29.6
2012-04-19 10:23:08 51°18.657 2°39.13 164.8 11.4 157 29.3
2012-04-19 10:24:08 51°18.48 2°39.245 165.4 11.5 158 28.6
2012-04-19 10:25:08 51°18.301 2°39.352 169.3 11.4 161 28.7
2012-04-19 10:26:08 51°18.122 2°39.444 170.3 11.4 162 30.2
2012-04-19 10:27:08 51°17.942 2°39.528 172.4 11.2 163 28.1
2012-04-19 10:28:08 51°17.763 2°39.638 167.3 11.7 157 21
2012-04-19 10:29:08 51°17.578 2°39.74 171.6 11.7 162 16.7
2012-04-19 10:30:08 51°17.39 2°39.835 171.8 12 163 15.4
2012-04-19 10:31:08 51°17.198 2°39.914 178.5 11.9 173 17.9
2012-04-19 10:32:08 51°17.005 2°39.936 182.9 11.6 176 20.2
2012-04-19 10:33:08 51°16.813 2°39.987 173.5 11.7 167 22.1
2012-04-19 10:34:08 51°16.627 2°40.092 161.9 12 156 24.6
2012-04-19 10:35:08 51°16.443 2°40.208 167.1 11.8 160 24.8
2012-04-19 10:36:08 51°16.261 2°40.317 169 11.4 163 24.4
2012-04-19 10:37:07 51°16.082 2°40.357 183.5 10.9 178 23.4
2012-04-19 10:38:08 51°15.895 2°40.378 182.7 11.1 177 22
2012-04-19 10:39:08 51°15.713 2°40.361 192.4 11 188 20.5
2012-04-19 10:40:08 51°15.54 2°40.287 201.9 10.6 198 19.3
2012-04-19 10:41:08 51°15.367 2°40.213 199.6 10.8 195 18.3
2012-04-19 10:42:07 51°15.198 2°40.142 196.3 10.7 191 17.4
2012-04-19 10:43:08 51°15.018 2°40.089 197.1 10.9 192 16.7
2012-04-19 10:44:07 51°14.845 2°40.017 201.7 11 196 16.9
2012-04-19 10:45:08 51°14.667 2°39.944 198.1 10.9 193 16.9
2012-04-19 10:46:08 51°14.486 2°39.893 193.9 11 188 16.3
2012-04-19 10:47:08 51°14.306 2°39.831 200.8 10.9 196 16.4
2012-04-19 10:48:08 51°14.126 2°39.767 200 11 197 16.4
2012-04-19 10:49:08 51°13.957 2°39.654 208.5 11.1 204 17.1
2012-04-19 10:50:08 51°13.79 2°39.533 208.7 10.9 205 16.5
2012-04-19 10:51:08 51°13.619 2°39.428 203.3 11.1 198 17
2012-04-19 10:52:08 51°13.443 2°39.336 202.6 11.1 198 18
2012-04-19 10:53:07 51°13.273 2°39.241 205 10.9 201 17.5
2012-04-19 10:54:08 51°13.12 2°39.086 223 10.8 222 17.5
2012-04-19 10:55:08 51°12.987 2°38.897 225.1 10.6 223 15.4
2012-04-19 10:56:08 51°12.853 2°38.711 223.6 10.8 221 16.8
2012-04-19 10:57:08 51°12.711 2°38.54 217.7 10.7 215 16.4
2012-04-19 10:58:08 51°12.566 2°38.373 221.1 10.8 219 16.6
2012-04-19 10:59:08 51°12.431 2°38.188 222.2 10.7 220 16.7
2012-04-19 11:00:08 51°12.288 2°38.022 217.2 10.7 215 16.7
2012-04-19 11:01:08 51°12.143 2°37.854 218.2 10.7 215 16.6
2012-04-19 11:02:08 51°12 2°37.686 222.2 10.6 220 16.7
2012-04-19 11:03:08 51°11.867 2°37.499 224 10.6 221 16.9
2012-04-19 11:04:07 51°11.726 2°37.333 217 10.8 214 16.7
2012-04-19 11:05:08 51°11.579 2°37.161 222.6 10.8 220 16.5
2012-04-19 11:06:08 51°11.441 2°36.979 222.5 10.8 219 16.5
2012-04-19 11:07:08 51°11.297 2°36.804 218.6 10.9 215 15.9
2012-04-19 11:08:08 51°11.148 2°36.639 218.7 11 215 15.9
2012-04-19 11:09:08 51°11.001 2°36.472 221.9 10.9 221 15.5
2012-04-19 11:10:08 51°10.863 2°36.287 221.5 10.9 217 14.9
2012-04-19 11:11:08 51°10.72 2°36.114 221.5 10.8 218 14.7
2012-04-19 11:12:08 51°10.574 2°35.95 217.9 10.7 216 14.1
2012-04-19 11:13:08 51°10.439 2°35.77 223.7 10.6 221 14.2
2012-04-19 11:14:08 51°10.299 2°35.598 217.7 10.6 215 14.3
2012-04-19 11:15:08 51°10.149 2°35.452 207.2 10.5 198 14.4
2012-04-19 11:16:08 51°9.97 2°35.475 169 11.4 158 19.2
2012-04-19 11:17:08 51°9.836 2°35.654 133.1 11 121 22
2012-04-19 11:18:08 51°9.733 2°35.896 134.1 11.2 122 21.6
2012-04-19 11:19:08 51°9.637 2°36.153 130.5 11.4 120 20.5
2012-04-19 11:20:08 51°9.539 2°36.411 129.3 11.4 121 19.8
2012-04-19 11:21:08 51°9.444 2°36.675 129.4 11.6 120 19.1
2012-04-19 11:22:08 51°9.348 2°36.942 130.3 11.7 119 17.5
2012-04-19 11:23:08 51°9.261 2°37.168 133.9 9 122 15.3
2012-04-19 11:24:08 51°9.201 2°37.305 158 4.1 134 14
2012-04-19 11:25:08 51°9.164 2°37.337 206.4 1.8 183 13.7
2012-04-19 11:26:08 51°9.121 2°37.284 226.6 4.9 225 13.3
2012-04-19 11:27:08 51°9.074 2°37.162 235.1 5.8 235 13.1
2012-04-19 11:28:08 51°9.024 2°37.077 224.4 2.5 221 12.8
2012-04-19 11:29:08 51°9.022 2°37.062 263.6 0.6 5 12.8
2012-04-19 11:30:08 51°9.039 2°37.068 284.7 1.2 19 13
2012-04-19 11:31:08 51°9.059 2°37.082 282.6 1.4 27 13.2
2012-04-19 11:32:08 51°9.079 2°37.098 278.1 1.4 33 13.4
2012-04-19 11:33:08 51°9.097 2°37.119 272.1 1.4 38 13.4
2012-04-19 11:34:08 51°9.115 2°37.144 268.4 1.4 45 13.6
2012-04-19 11:35:08 51°9.135 2°37.172 271.8 1.6 41 13.7
2012-04-19 11:36:08 51°9.156 2°37.192 265.9 1.3 23 13.9
2012-04-19 11:37:09 51°9.173 2°37.198 248.9 0.9 7 14
2012-04-19 11:38:08 51°9.183 2°37.2 236.7 0.4 1 14.1
2012-04-19 11:39:08 51°9.188 2°37.198 236 0.4 350 14.2
2012-04-19 11:40:08 51°9.186 2°37.18 233.8 1.7 240 14.1
2012-04-19 11:41:08 51°9.168 2°37.151 224.7 0.6 218 14.1
2012-04-19 11:42:08 51°9.166 2°37.146 231.6 0.2 349 14
2012-04-19 11:43:08 51°9.174 2°37.148 238.2 0.6 14 14.2
2012-04-19 11:44:08 51°9.184 2°37.152 233.1 0.4 41 14.1
2012-04-19 11:45:08 51°9.186 2°37.153 226.1 0.1 303 14.3
2012-04-19 11:46:08 51°9.184 2°37.146 230 0.3 251 14.1
2012-04-19 11:47:08 51°9.18 2°37.141 217.9 0.4 172 14.4
2012-04-19 11:48:08 51°9.173 2°37.142 216.1 0.4 185 14.1
2012-04-19 11:49:08 51°9.165 2°37.141 225.1 0.2 208 14
2012-04-19 11:50:08 51°9.166 2°37.14 235.1 0.1 348 13.9
2012-04-19 11:51:08 51°9.172 2°37.139 242.2 0.5 357 14.2
2012-04-19 11:52:08 51°9.181 2°37.139 243.1 0.5 3 14.2
2012-04-19 11:53:08 51°9.191 2°37.141 242.9 0.6 13 14.2
2012-04-19 11:54:08 51°9.2 2°37.147 237.8 0.5 27 14.4
2012-04-19 11:55:08 51°9.204 2°37.155 224.3 0.4 93 14.4
2012-04-19 11:56:07 51°9.188 2°37.157 214.4 2.6 199 14
2012-04-19 11:57:08 51°9.158 2°37.136 228.4 0.9 205 14
2012-04-19 11:58:07 51°9.151 2°37.132 231.6 0.1 119 13.8
2012-04-19 11:59:08 51°9.153 2°37.137 230.8 0.3 48 13.9
2012-04-19 12:00:08 51°9.158 2°37.145 237.2 0.4 39 13.8
2012-04-19 12:01:08 51°9.165 2°37.151 246.1 0.6 24 14.1
2012-04-19 12:02:08 51°9.176 2°37.154 252.1 0.7 -999 14
2012-04-19 12:03:08 51°9.188 2°37.154 244.7 0.7 2 14.1
2012-04-19 12:04:08 51°9.196 2°37.155 240.9 0.4 357 14.3
2012-04-19 12:05:08 51°9.206 2°37.14 270.9 1.7 306 14.4
2012-04-19 12:06:08 51°9.248 2°37.061 294 6.3 303 15.2
2012-04-19 12:07:07 51°9.327 2°36.85 301.2 11.3 307 17.6
2012-04-19 12:08:08 51°9.468 2°36.628 316.9 12 324 18.7
2012-04-19 12:09:08 51°9.638 2°36.456 322 12.1 327 19.8
2012-04-19 12:10:08 51°9.804 2°36.275 318 12 323 21.1
2012-04-19 12:11:08 51°9.979 2°36.117 333.7 12.5 341 21.3
2012-04-19 12:12:08 51°10.186 2°36.049 347.2 12.8 353 17.1
2012-04-19 12:13:08 51°10.398 2°36.027 357.2 12.8 359 13.8
2012-04-19 12:14:07 51°10.609 2°36.068 8.5 13 10 14.2
2012-04-19 12:15:08 51°10.827 2°36.134 10.2 13.2 11 14.4
2012-04-19 12:16:08 51°11.036 2°36.223 16.3 13 19 14.4
2012-04-19 12:17:08 51°11.238 2°36.359 24.8 13.2 27 14.4
2012-04-19 12:18:08 51°11.436 2°36.506 23.1 13.1 22 14
2012-04-19 12:19:08 51°11.639 2°36.63 22.2 13.2 24 13.7
2012-04-19 12:20:08 51°11.827 2°36.808 33.3 13.1 35 13.4
2012-04-19 12:21:08 51°12.011 2°36.998 32.1 13.3 33 13.6
2012-04-19 12:22:08 51°12.204 2°37.164 26.3 13.2 27 13.7
2012-04-19 12:23:08 51°12.389 2°37.355 39.1 13.4 38 14.1
2012-04-19 12:24:08 51°12.554 2°37.589 45.8 13.2 45 14.9
2012-04-19 12:25:08 51°12.68 2°37.879 61 13.3 59 15.7
2012-04-19 12:26:08 51°12.793 2°38.181 60.7 13.3 59 16.2
2012-04-19 12:27:08 51°12.909 2°38.482 58.8 13.4 58 16.6
2012-04-19 12:28:08 51°13.025 2°38.783 68 13.4 65 15.4
2012-04-19 12:29:08 51°13.106 2°39.11 71.5 13.1 68 16.9
2012-04-19 12:30:08 51°13.187 2°39.439 71.3 13.2 69 17.6
2012-04-19 12:31:08 51°13.268 2°39.769 71.4 13.5 67 17.8
2012-04-19 12:32:08 51°13.356 2°40.095 69.5 13.6 67 18.2
2012-04-19 12:33:08 51°13.439 2°40.423 68 13.3 63 18.2
2012-04-19 12:34:08 51°13.528 2°40.752 69.3 13.3 67 18.9
2012-04-19 12:35:08 51°13.615 2°41.082 70.5 13.6 68 19
2012-04-19 12:36:08 51°13.702 2°41.415 70.5 13.7 68 19
2012-04-19 12:37:08 51°13.79 2°41.748 68.7 13.5 64 18.7
2012-04-19 12:38:08 51°13.885 2°42.079 70.8 13.8 68 18.8
2012-04-19 12:39:08 51°13.976 2°42.411 72.7 13.6 69 18.6
2012-04-19 12:40:08 51°14.056 2°42.749 74.6 13.6 72 18.5
2012-04-19 12:41:08 51°14.119 2°43.094 81.4 13.3 77 18.4
2012-04-19 12:42:08 51°14.163 2°43.441 82.7 13.4 77 17.7
2012-04-19 12:43:08 51°14.21 2°43.786 81.1 13.5 75 16.8
2012-04-19 12:44:08 51°14.267 2°44.129 78.6 13.5 75 15.8
2012-04-19 12:45:08 51°14.316 2°44.472 80.1 13.2 75 14.3
2012-04-19 12:46:08 51°14.367 2°44.813 82.4 13.3 76 13
2012-04-19 12:47:08 51°14.427 2°45.147 78.3 12.9 74 11.5
2012-04-19 12:48:08 51°14.473 2°45.483 81.2 12.6 80 11
2012-04-19 12:49:08 51°14.525 2°45.819 81.5 13 77 11.8
2012-04-19 12:50:08 51°14.578 2°46.158 78.9 13.1 75 13.4
2012-04-19 12:51:08 51°14.631 2°46.497 79 13.3 75 14.9
2012-04-19 12:52:08 51°14.694 2°46.837 77 13.4 73 15.5
2012-04-19 12:53:08 51°14.749 2°47.183 82.9 13.6 79 15.8
2012-04-19 12:54:08 51°14.775 2°47.533 89.3 13.2 85 15.7
2012-04-19 12:55:08 51°14.798 2°47.877 86.5 12.9 82 16.2
2012-04-19 12:56:08 51°14.83 2°48.218 82.8 13 80 14.9
2012-04-19 12:57:07 51°14.872 2°48.553 80.9 13.1 76 15
2012-04-19 12:58:08 51°14.905 2°48.903 87.1 13.2 85 15.3
2012-04-19 12:59:08 51°14.926 2°49.253 89.1 13.2 84 15.3
2012-04-19 13:00:08 51°14.95 2°49.602 89.7 13 85 15.5
2012-04-19 13:01:08 51°14.988 2°49.947 82.3 13.1 78 15.3
2012-04-19 13:02:08 51°15.032 2°50.288 85.8 13 84 15.2
2012-04-19 13:03:08 51°15.012 2°50.627 104.1 12.9 101 15
2012-04-19 13:04:08 51°14.992 2°50.97 98.8 13.1 93 14.7
2012-04-19 13:05:08 51°14.983 2°51.316 97.4 13.1 92 14.3
2012-04-19 13:06:08 51°14.987 2°51.658 90.1 12.7 85 14
2012-04-19 13:07:08 51°14.999 2°52.002 90.1 13 86 13.6
2012-04-19 13:08:07 51°15.015 2°52.339 93.2 12.9 88 13.2
2012-04-19 13:09:08 51°15.034 2°52.684 88.6 12.9 85 13.1
2012-04-19 13:10:07 51°15.053 2°53.018 87.5 12.9 84 12.6
2012-04-19 13:11:08 51°15.065 2°53.366 90.3 12.9 89 12.3
2012-04-19 13:12:08 51°15.023 2°53.697 114.1 12.5 110 12.2
2012-04-19 13:13:08 51°14.949 2°54.007 118.6 12.6 112 12
2012-04-19 13:14:08 51°14.866 2°54.313 119.3 12.7 110 12.4
2012-04-19 13:15:08 51°14.773 2°54.608 129.6 12 124 13.5
2012-04-19 13:16:08 51°14.659 2°54.87 138.4 11.7 132 13.9
2012-04-19 13:17:07 51°14.515 2°55.068 147.2 11.5 145 13
2012-04-19 13:18:09 51°14.362 2°55.222 151.2 9.5 151 12.6
2012-04-19 13:19:11 51°14.229 2°55.334 153.4 8.4 153 12.5
2012-04-19 13:20:11 51°14.108 2°55.428 156.1 7.7 155 -999
2012-04-19 13:21:11 51°14 2°55.507 157.6 6.4 155 -999
2012-04-19 13:22:11 51°13.91 2°55.575 156.9 5.8 154 -999
2012-04-19 13:23:11 51°13.82 2°55.643 156.1 6.2 154 12.5
2012-04-19 13:24:11 51°13.736 2°55.728 143.4 5.7 139 -999
2012-04-19 13:25:11 51°13.683 2°55.834 124.8 4.8 121 -999
2012-04-19 13:26:11 51°13.65 2°55.936 113.7 3.9 111 12
2012-04-19 13:27:11 51°13.638 2°56.016 114.2 1.5 103 9.8